createdAt,value
2023-05-13T00:06:38.426Z,8.49
2023-05-13T00:09:07.786Z,8.60
2023-05-13T00:11:36.997Z,8.54
2023-05-13T00:14:06.788Z,8.54
2023-05-13T00:16:35.819Z,8.54
2023-05-13T00:19:05.251Z,8.56
2023-05-13T00:21:34.373Z,8.48
2023-05-13T00:24:05.726Z,8.47
2023-05-13T00:26:34.594Z,8.44
2023-05-13T00:29:03.710Z,8.47
2023-05-13T00:31:32.740Z,8.47
2023-05-13T00:34:02.209Z,8.46
2023-05-13T00:36:31.419Z,8.48
2023-05-13T00:39:00.582Z,8.47
2023-05-13T00:41:31.233Z,8.48
2023-05-13T00:48:18.467Z,8.52
2023-05-13T00:50:47.570Z,8.48
2023-05-13T00:57:36.866Z,8.50
2023-05-13T01:00:07.679Z,8.48
2023-05-13T01:07:11.022Z,8.48
2023-05-13T01:09:46.658Z,8.48
2023-05-13T01:12:32.342Z,8.47
2023-05-13T01:15:07.379Z,8.45
2023-05-13T01:21:30.657Z,8.48
2023-05-13T01:28:17.287Z,8.47
2023-05-13T01:30:47.512Z,8.46
2023-05-13T01:33:17.617Z,8.52
2023-05-13T01:35:47.542Z,8.48
2023-05-13T01:42:36.724Z,8.47
2023-05-13T01:45:06.536Z,8.50
2023-05-13T01:47:36.073Z,8.48
2023-05-13T01:50:05.542Z,8.51
2023-05-13T01:52:34.640Z,8.50
2023-05-13T01:59:23.936Z,8.54
2023-05-13T02:01:52.963Z,8.61
2023-05-13T02:08:41.599Z,8.55
2023-05-13T02:11:11.203Z,8.53
2023-05-13T02:13:40.402Z,8.53
2023-05-13T02:16:12.808Z,8.51
2023-05-13T02:18:42.317Z,8.53
2023-05-13T02:21:11.896Z,8.52
2023-05-13T02:23:41.296Z,8.55
2023-05-13T02:26:10.377Z,8.55
2023-05-13T02:28:39.576Z,8.51
2023-05-13T02:31:10.394Z,8.53
2023-05-13T02:33:39.605Z,8.54
2023-05-13T02:36:08.906Z,8.51
2023-05-13T02:38:40.042Z,8.55
2023-05-13T02:41:08.938Z,8.56
2023-05-13T02:43:38.338Z,8.52
2023-05-13T02:50:27.325Z,8.62
2023-05-13T02:52:56.526Z,8.65
2023-05-13T02:59:37.832Z,8.59
2023-05-13T03:02:07.611Z,8.61
2023-05-13T03:08:50.283Z,8.60
2023-05-13T03:15:38.704Z,8.59
2023-05-13T03:18:08.250Z,8.57
2023-05-13T03:24:51.198Z,8.58
2023-05-13T03:27:21.215Z,8.61
2023-05-13T03:32:51.771Z,8.57
2023-05-13T03:39:32.458Z,8.56
2023-05-13T03:46:21.579Z,8.59
2023-05-13T03:48:51.046Z,8.63
2023-05-13T03:55:38.388Z,8.60
2023-05-13T03:58:14.035Z,8.62
2023-05-13T04:05:02.944Z,8.69
2023-05-13T04:07:32.230Z,8.67
2023-05-13T04:10:01.204Z,8.75
2023-05-13T04:16:36.806Z,8.68
2023-05-13T04:19:06.305Z,8.69
2023-05-13T04:25:55.370Z,8.69
2023-05-13T04:28:24.258Z,8.70
2023-05-13T04:30:54.906Z,8.72
2023-05-13T04:33:23.777Z,8.70
2023-05-13T04:35:52.866Z,8.75
2023-05-13T04:38:21.970Z,8.73
2023-05-13T04:40:51.669Z,8.76
2023-05-13T04:43:23.426Z,8.75
2023-05-13T04:45:52.753Z,8.82
2023-05-13T04:48:21.919Z,8.77
2023-05-13T04:50:52.962Z,8.78
2023-05-13T04:53:22.161Z,8.84
2023-05-13T04:55:52.889Z,8.85
2023-05-13T04:58:23.930Z,8.90
2023-05-13T05:00:53.534Z,8.93
2023-05-13T05:03:22.861Z,8.92
2023-05-13T05:05:52.235Z,8.92
2023-05-13T05:12:39.887Z,9.00
2023-05-13T05:15:16.203Z,9.01
2023-05-13T05:22:03.499Z,8.86
2023-05-13T05:24:32.695Z,8.80
2023-05-13T05:31:28.043Z,8.78
2023-05-13T05:42:59.942Z,8.91
2023-05-13T05:45:29.559Z,8.93
2023-05-13T05:52:13.322Z,9.09
2023-05-13T05:54:45.172Z,9.19
2023-05-13T05:57:14.471Z,9.22
2023-05-13T05:59:43.675Z,9.28
2023-05-13T06:02:12.877Z,9.26
2023-05-13T06:04:43.125Z,9.36
2023-05-13T06:07:15.273Z,9.30
2023-05-13T06:09:45.575Z,9.46
2023-05-13T06:12:14.766Z,9.51
2023-05-13T06:18:56.532Z,9.46
2023-05-13T06:21:26.088Z,9.52
2023-05-13T06:28:15.292Z,9.38
2023-05-13T06:30:46.420Z,9.37
2023-05-13T06:37:28.093Z,9.20
2023-05-13T06:39:57.233Z,9.16
2023-05-13T06:42:26.511Z,9.15
2023-05-13T06:44:56.955Z,9.20
2023-05-13T06:47:26.913Z,9.20
2023-05-13T06:54:09.611Z,9.38
2023-05-13T06:56:38.809Z,9.49
2023-05-13T07:03:28.419Z,9.74
2023-05-13T07:05:57.802Z,9.95
2023-05-13T07:12:45.450Z,10.24
2023-05-13T07:19:28.498Z,10.43
2023-05-13T07:21:58.353Z,10.32
2023-05-13T07:28:46.365Z,10.46
2023-05-13T07:31:16.195Z,10.51
2023-05-13T07:33:45.385Z,10.67
2023-05-13T07:36:15.904Z,10.59
2023-05-13T07:38:45.715Z,10.60
2023-05-13T07:41:15.014Z,10.60
2023-05-13T07:43:44.827Z,10.47
2023-05-13T07:46:13.921Z,10.50
2023-05-13T07:48:43.411Z,10.52
2023-05-13T07:51:12.624Z,10.45
2023-05-13T07:53:43.354Z,10.62
2023-05-13T07:56:12.245Z,10.53
2023-05-13T07:58:41.863Z,10.43
2023-05-13T08:01:10.849Z,10.41
2023-05-13T08:03:40.232Z,10.38
2023-05-13T08:10:23.626Z,10.62
2023-05-13T08:12:58.125Z,10.73
2023-05-13T08:19:46.893Z,10.93
2023-05-13T08:22:16.097Z,10.73
2023-05-13T08:29:05.176Z,10.69
2023-05-13T08:35:53.755Z,10.77
2023-05-13T08:38:23.772Z,10.71
2023-05-13T08:45:22.063Z,10.72
2023-05-13T08:47:53.692Z,10.86
2023-05-13T08:54:36.580Z,10.70
2023-05-13T08:57:06.898Z,10.72
2023-05-13T08:59:36.411Z,10.93
2023-05-13T09:02:07.449Z,11.15
2023-05-13T09:04:38.309Z,11.05
2023-05-13T09:11:26.556Z,11.69
2023-05-13T09:14:02.737Z,11.64
2023-05-13T09:20:50.663Z,12.18
2023-05-13T09:23:20.676Z,11.83
2023-05-13T09:30:14.363Z,11.35
2023-05-13T09:32:43.792Z,11.48
2023-05-13T09:35:17.083Z,11.49
2023-05-13T09:37:51.098Z,11.44
2023-05-13T09:40:20.845Z,11.43
2023-05-13T09:42:50.797Z,11.85
2023-05-13T09:45:20.261Z,11.82
2023-05-13T09:47:52.702Z,11.80
2023-05-13T09:50:22.267Z,11.86
2023-05-13T09:52:53.107Z,11.85
2023-05-13T09:55:22.512Z,11.60
2023-05-13T09:57:51.405Z,11.52
2023-05-13T10:00:31.646Z,11.31
2023-05-13T10:03:02.520Z,11.65
2023-05-13T10:05:32.607Z,11.52
2023-05-13T10:08:03.855Z,11.41
2023-05-13T10:10:34.997Z,11.13
2023-05-13T10:17:16.818Z,11.22
2023-05-13T10:19:46.114Z,10.89
2023-05-13T10:26:28.856Z,10.90
2023-05-13T10:29:00.817Z,10.90
2023-05-13T10:34:34.346Z,11.21
2023-05-13T10:41:54.853Z,11.80
2023-05-13T10:44:24.862Z,11.85
2023-05-13T10:46:54.266Z,11.72
2023-05-13T10:49:25.215Z,11.99
2023-05-13T10:51:54.499Z,12.03
2023-05-13T10:54:25.045Z,11.96
2023-05-13T10:57:00.167Z,11.83
2023-05-13T10:59:30.898Z,11.54
2023-05-13T11:02:03.886Z,11.66
2023-05-13T11:04:33.489Z,11.77
2023-05-13T11:07:17.532Z,11.70
2023-05-13T11:09:52.874Z,11.68
2023-05-13T11:16:26.285Z,11.54
2023-05-13T11:23:06.659Z,11.29
2023-05-13T11:25:35.982Z,11.38
2023-05-13T11:32:18.622Z,11.42
2023-05-13T11:43:42.952Z,10.61
2023-05-13T11:46:12.290Z,10.69
2023-05-13T11:53:01.556Z,10.69
2023-05-13T11:55:32.077Z,10.73
2023-05-13T11:58:01.472Z,11.03
2023-05-13T12:00:31.909Z,11.19
2023-05-13T12:03:01.946Z,11.53
2023-05-13T12:05:31.128Z,11.85
2023-05-13T12:08:01.537Z,11.85
2023-05-13T12:10:30.939Z,11.98
2023-05-13T12:13:00.440Z,12.11
2023-05-13T12:15:30.253Z,12.23
2023-05-13T12:17:59.897Z,12.14
2023-05-13T12:24:49.468Z,12.14
2023-05-13T12:27:18.759Z,12.23
2023-05-13T12:34:06.716Z,12.18
2023-05-13T12:36:39.384Z,12.39
2023-05-13T12:43:22.643Z,12.78
2023-05-13T12:50:18.472Z,12.06
2023-05-13T12:52:48.092Z,12.15
2023-05-13T12:59:31.895Z,12.21
2023-05-13T13:02:01.373Z,12.01
2023-05-13T13:08:43.080Z,12.26
2023-05-13T13:15:38.824Z,12.31
2023-05-13T13:18:08.250Z,12.27
2023-05-13T13:24:49.426Z,12.62
2023-05-13T13:27:19.027Z,12.07
2023-05-13T13:29:48.227Z,12.06
2023-05-13T13:36:38.759Z,11.90
2023-05-13T13:39:07.955Z,11.98
2023-05-13T13:45:56.187Z,12.40
2023-05-13T13:48:25.506Z,11.92
2023-05-13T13:55:21.453Z,11.72
2023-05-13T13:57:50.765Z,11.86
2023-05-13T14:03:28.008Z,11.47
2023-05-13T14:10:23.507Z,11.64
2023-05-13T14:12:54.031Z,11.42
2023-05-13T14:15:24.656Z,11.35
2023-05-13T14:17:54.171Z,11.41
2023-05-13T14:20:23.851Z,11.39
2023-05-13T14:22:53.686Z,11.48
2023-05-13T14:25:23.912Z,11.49
2023-05-13T14:27:53.199Z,11.29
2023-05-13T14:30:23.581Z,11.25
2023-05-13T14:37:11.173Z,11.25
2023-05-13T14:39:40.267Z,11.14
2023-05-13T14:46:23.452Z,11.33
2023-05-13T14:48:54.565Z,11.37
2023-05-13T14:55:42.620Z,11.19
2023-05-13T15:02:25.525Z,10.99
2023-05-13T15:04:54.760Z,11.08
2023-05-13T15:11:42.340Z,11.19
2023-05-13T15:14:12.527Z,11.22
2023-05-13T15:21:07.534Z,11.38
2023-05-13T15:27:55.529Z,11.55
2023-05-13T15:30:24.736Z,11.51
2023-05-13T15:37:14.408Z,11.62
2023-05-13T15:39:43.622Z,11.49
2023-05-13T15:46:33.840Z,11.41
2023-05-13T15:53:17.589Z,11.27
2023-05-13T15:55:46.683Z,11.23
2023-05-13T16:09:44.309Z,11.13
2023-05-13T16:12:13.720Z,11.11
2023-05-13T16:19:03.988Z,11.10
2023-05-13T16:21:33.121Z,11.04
2023-05-13T16:28:23.744Z,10.87
2023-05-13T16:30:54.807Z,10.79
2023-05-13T16:37:43.264Z,10.71
2023-05-13T16:40:14.094Z,10.73
2023-05-13T16:42:43.189Z,10.73
2023-05-13T16:45:14.440Z,10.77
2023-05-13T16:47:43.962Z,10.73
2023-05-13T16:54:26.058Z,10.70
2023-05-13T16:56:55.048Z,10.77
2023-05-13T17:03:31.821Z,10.90
2023-05-13T17:06:01.058Z,10.91
2023-05-13T17:08:30.225Z,10.99
2023-05-13T17:10:59.555Z,10.90
2023-05-13T17:13:28.411Z,10.84
2023-05-13T17:15:57.637Z,10.78
2023-05-13T17:18:27.156Z,10.72
2023-05-13T17:20:57.866Z,10.67
2023-05-13T17:23:26.961Z,10.63
2023-05-13T17:25:56.353Z,10.62
2023-05-13T17:28:25.561Z,10.59
2023-05-13T17:30:55.577Z,10.59
2023-05-13T17:33:24.769Z,10.56
2023-05-13T17:35:54.065Z,10.55
2023-05-13T17:38:25.011Z,10.57
2023-05-13T17:40:54.101Z,10.54
2023-05-13T17:43:22.993Z,10.54
2023-05-13T17:50:11.890Z,10.51
2023-05-13T17:52:41.948Z,10.49
2023-05-13T17:59:30.878Z,10.51
2023-05-13T18:02:00.148Z,10.48
2023-05-13T18:08:54.996Z,10.42
2023-05-13T18:15:37.735Z,10.31
2023-05-13T18:18:07.060Z,10.19
2023-05-13T18:24:48.228Z,10.27
2023-05-13T18:27:17.220Z,10.27
2023-05-13T18:29:46.422Z,10.25
2023-05-13T18:32:16.942Z,10.25
2023-05-13T18:34:46.040Z,10.21
2023-05-13T18:37:15.437Z,10.16
2023-05-13T18:39:46.053Z,10.16
2023-05-13T18:42:15.268Z,10.17
2023-05-13T18:44:47.029Z,10.13
2023-05-13T18:51:29.662Z,10.13
2023-05-13T18:53:59.163Z,10.12
2023-05-13T19:00:40.474Z,10.08
2023-05-13T19:03:10.441Z,10.10
2023-05-13T19:08:47.991Z,10.03
2023-05-13T19:15:29.530Z,9.95
2023-05-13T19:17:58.763Z,9.88
2023-05-13T19:20:27.692Z,9.91
2023-05-13T19:22:56.997Z,9.86
2023-05-13T19:25:27.629Z,9.82
2023-05-13T19:27:56.750Z,9.84
2023-05-13T19:30:25.737Z,9.85
2023-05-13T19:32:55.030Z,9.94
2023-05-13T19:35:24.101Z,9.91
2023-05-13T19:46:55.843Z,9.86
2023-05-13T19:49:25.112Z,9.89
2023-05-13T19:56:07.027Z,9.88
2023-05-13T19:58:36.925Z,9.89
2023-05-13T20:01:06.134Z,9.89
2023-05-13T20:03:36.869Z,9.99
2023-05-13T20:06:05.860Z,9.98
2023-05-13T20:08:36.002Z,9.97
2023-05-13T20:11:05.097Z,9.93
2023-05-13T20:17:52.406Z,9.84
2023-05-13T20:20:23.545Z,9.87
2023-05-13T20:27:05.381Z,9.93
2023-05-13T20:29:36.827Z,9.88
2023-05-13T20:32:06.814Z,9.88
2023-05-13T20:34:36.656Z,9.96
2023-05-13T20:37:07.286Z,9.95
2023-05-13T20:39:36.405Z,9.94
2023-05-13T20:42:05.478Z,10.04
2023-05-13T20:44:34.466Z,9.99
2023-05-13T20:47:03.663Z,10.08
2023-05-13T20:53:47.840Z,10.06
2023-05-13T20:56:17.850Z,10.06
2023-05-13T21:03:05.668Z,10.05
2023-05-13T21:05:34.701Z,10.03
2023-05-13T21:12:25.740Z,10.06
2023-05-13T21:19:08.687Z,10.03
2023-05-13T21:21:38.395Z,10.01
2023-05-13T21:28:27.574Z,10.03
2023-05-13T21:30:58.355Z,9.94
2023-05-13T21:37:56.178Z,9.94
2023-05-13T21:49:36.614Z,9.92
2023-05-13T21:52:06.218Z,9.94
2023-05-13T21:58:53.485Z,9.94
2023-05-13T22:01:22.566Z,9.92
2023-05-13T22:03:51.651Z,10.01
2023-05-13T22:06:22.595Z,9.95
2023-05-13T22:08:51.779Z,9.93
2023-05-13T22:11:21.489Z,9.95
2023-05-13T22:13:50.721Z,9.94
2023-05-13T22:16:20.121Z,9.95
2023-05-13T22:18:51.202Z,10.01
2023-05-13T22:21:22.081Z,9.99
2023-05-13T22:23:51.057Z,9.95
2023-05-13T22:26:20.357Z,9.91
2023-05-13T22:28:50.783Z,9.91
2023-05-13T22:35:44.273Z,9.91
2023-05-13T22:38:14.828Z,9.82
2023-05-13T22:49:20.414Z,9.75
2023-05-13T22:56:10.004Z,9.71
2023-05-13T22:58:39.304Z,9.74
2023-05-13T23:05:34.331Z,9.82
2023-05-13T23:08:03.521Z,9.77
2023-05-13T23:14:45.832Z,9.68
2023-05-13T23:17:15.048Z,9.61
2023-05-13T23:19:44.150Z,9.55
2023-05-13T23:26:31.671Z,9.39
2023-05-13T23:29:01.089Z,9.40
2023-05-13T23:35:44.841Z,9.22
2023-05-13T23:38:14.255Z,9.17
2023-05-13T23:40:43.447Z,9.09
2023-05-13T23:43:12.779Z,8.96
2023-05-13T23:45:42.118Z,8.98
2023-05-13T23:48:11.451Z,9.07
2023-05-13T23:50:42.084Z,9.05
2023-05-13T23:53:17.005Z,8.92
2023-05-13T23:55:46.315Z,8.84
2023-05-13T23:58:16.028Z,8.82
